Time;durP1;ratioP1;P1;durP2;ratioP2;P2;SDS_P1;SDS_P2;PMS_P1;PMS_P2;Temp;Humidity;BMP_temperature;BMP_pressure;BME280_temperature;BME280_humidity;BME280_pressure;Samples;Min_cycle;Max_cycle;Signal;HPM_P1;HPM_P2
2023/10/15 00:00:19;;;;;;;4.55;0.95;;;;;;;;;;5084630;28;20056;-73
2023/10/15 00:02:48;;;;;;;3.83;0.63;;;;;;;;;;5088675;27;20136;-73
2023/10/15 00:05:19;;;;;;;3.60;0.70;;;;;;;;;;5040709;28;20048;-72
2023/10/15 00:07:48;;;;;;;2.25;0.73;;;;;;;;;;5054519;28;20072;-72
2023/10/15 00:10:23;;;;;;;2.03;0.50;;;;;;;;;;5052994;28;20055;-72
2023/10/15 00:12:51;;;;;;;2.80;0.85;;;;;;;;;;5053064;28;20048;-72
2023/10/15 00:15:20;;;;;;;2.63;0.80;;;;;;;;;;5074575;28;20064;-72
2023/10/15 00:17:47;;;;;;;;;;;;;;;;;;5042138;28;20079;-73
2023/10/15 00:20:16;;;;;;;4.10;1.77;;;;;;;;;;5071902;28;19960;-70
2023/10/15 00:22:44;;;;;;;7.85;2.10;;;;;;;;;;5046452;28;20045;-71
2023/10/15 00:25:13;;;;;;;3.42;1.02;;;;;;;;;;5039496;28;20053;-72
2023/10/15 00:27:43;;;;;;;0.68;0.50;;;;;;;;;;5040120;28;20049;-73
2023/10/15 00:30:13;;;;;;;3.75;0.70;;;;;;;;;;5046056;28;20052;-71
2023/10/15 00:32:44;;;;;;;2.92;0.80;;;;;;;;;;5033237;28;20056;-70
2023/10/15 00:35:11;;;;;;;3.60;0.95;;;;;;;;;;5038037;28;20152;-70
2023/10/15 00:37:40;;;;;;;1.98;0.47;;;;;;;;;;5039430;28;20088;-73
2023/10/15 00:40:16;;;;;;;4.05;0.60;;;;;;;;;;5051213;28;20048;-73
2023/10/15 00:42:46;;;;;;;2.13;0.40;;;;;;;;;;5085515;28;20175;-71
2023/10/15 00:45:14;;;;;;;2.65;0.60;;;;;;;;;;5031174;28;20106;-73
2023/10/15 00:47:43;;;;;;;1.80;0.52;;;;;;;;;;5038509;28;20061;-72
2023/10/15 00:50:10;;;;;;;1.95;1.05;;;;;;;;;;5045046;28;20049;-75
2023/10/15 00:52:42;;;;;;;4.55;0.60;;;;;;;;;;5037555;28;20060;-73
2023/10/15 00:55:17;;;;;;;1.52;0.43;;;;;;;;;;5039155;28;20144;-73
2023/10/15 00:57:47;;;;;;;3.13;0.70;;;;;;;;;;5038938;28;20119;-72
2023/10/15 01:03:03;;;;;;;0.55;0.32;;;;;;;;;;5040764;28;20045;-73
2023/10/15 01:05:33;;;;;;;0.75;0.45;;;;;;;;;;5040841;28;20051;-73
2023/10/15 01:08:04;;;;;;;1.05;0.40;;;;;;;;;;5041591;28;20202;-71
2023/10/15 01:10:36;;;;;;;0.73;0.40;;;;;;;;;;5035451;28;20049;-71
2023/10/15 01:13:16;;;;;;;0.30;0.25;;;;;;;;;;5073545;28;20072;-72
2023/10/15 01:15:43;;;;;;;2.03;0.47;;;;;;;;;;4975625;28;20055;-71
2023/10/15 01:18:12;;;;;;;0.30;0.30;;;;;;;;;;4999564;28;20045;-72
2023/10/15 01:20:42;;;;;;;1.60;0.40;;;;;;;;;;5022543;28;21045;-74
2023/10/15 01:23:22;;;;;;;0.60;0.30;;;;;;;;;;5055818;28;20059;-74
2023/10/15 01:25:51;;;;;;;1.80;0.50;;;;;;;;;;5012870;28;20051;-72
2023/10/15 01:28:18;;;;;;;1.40;0.47;;;;;;;;;;5066022;28;20055;-72
2023/10/15 01:30:50;;;;;;;0.77;0.40;;;;;;;;;;5042735;28;20045;-71
2023/10/15 01:33:17;;;;;;;0.60;0.30;;;;;;;;;;5043783;28;20052;-71
2023/10/15 01:35:44;;;;;;;2.28;0.50;;;;;;;;;;5026114;28;20120;-73
2023/10/15 01:38:20;;;;;;;0.40;0.40;;;;;;;;;;5015636;28;20078;-71
2023/10/15 01:40:52;;;;;;;1.23;0.40;;;;;;;;;;5056757;28;20049;-72
2023/10/15 01:43:22;;;;;;;2.65;0.60;;;;;;;;;;5041056;28;20224;-72
2023/10/15 01:45:56;;;;;;;0.75;0.50;;;;;;;;;;4993271;28;20308;-73
2023/10/15 01:48:30;;;;;;;0.50;0.40;;;;;;;;;;5052009;28;20171;-71
2023/10/15 01:51:06;;;;;;;5.35;0.60;;;;;;;;;;5046067;28;20049;-70
2023/10/15 01:53:35;;;;;;;1.45;0.47;;;;;;;;;;5042876;28;20068;-74
2023/10/15 01:56:02;;;;;;;4.47;0.73;;;;;;;;;;5037201;28;20064;-73
2023/10/15 01:58:39;;;;;;;0.90;0.50;;;;;;;;;;5066889;28;20053;-71
2023/10/15 02:01:20;;;;;;;0.65;0.32;;;;;;;;;;5079087;28;20052;-73
2023/10/15 02:03:47;;;;;;;0.73;0.30;;;;;;;;;;5000686;28;20052;-72
2023/10/15 02:06:16;;;;;;;3.22;0.60;;;;;;;;;;5045176;28;20048;-74
2023/10/15 02:08:45;;;;;;;4.03;0.60;;;;;;;;;;5051152;28;20048;-72
2023/10/15 02:11:21;;;;;;;5.03;0.57;;;;;;;;;;5068232;28;20215;-71
2023/10/15 02:13:50;;;;;;;2.50;0.50;;;;;;;;;;5045137;28;20044;-73
2023/10/15 02:16:17;;;;;;;1.75;0.38;;;;;;;;;;5045415;28;20091;-73
2023/10/15 02:18:46;;;;;;;2.85;0.57;;;;;;;;;;5069644;28;20084;-73
2023/10/15 02:21:16;;;;;;;1.27;0.50;;;;;;;;;;5043448;28;20072;-73
2023/10/15 02:23:50;;;;;;;0.43;0.30;;;;;;;;;;5036409;28;20220;-73
2023/10/15 02:26:23;;;;;;;2.10;0.50;;;;;;;;;;5042554;28;20063;-72
2023/10/15 02:28:53;;;;;;;2.15;0.43;;;;;;;;;;5035126;28;20117;-73
2023/10/15 02:33:51;;;;;;;1.75;0.57;;;;;;;;;;4983136;28;20061;-62
2023/10/15 02:36:23;;;;;;;1.58;0.43;;;;;;;;;;4977760;28;20062;-62
2023/10/15 02:38:53;;;;;;;1.88;0.60;;;;;;;;;;4969808;28;20053;-62
2023/10/15 02:41:21;;;;;;;1.15;0.40;;;;;;;;;;4979964;28;20108;-62
2023/10/15 02:43:53;;;;;;;0.90;0.38;;;;;;;;;;4972854;28;20050;-62
2023/10/15 02:46:23;;;;;;;2.72;0.50;;;;;;;;;;4978096;28;20046;-62
2023/10/15 02:48:53;;;;;;;0.85;0.45;;;;;;;;;;4987276;28;20071;-62
2023/10/15 02:51:23;;;;;;;0.60;0.30;;;;;;;;;;4978119;28;20046;-62
2023/10/15 02:54:02;;;;;;;2.97;0.40;;;;;;;;;;4969992;28;20050;-62
2023/10/15 02:56:29;;;;;;;0.50;0.20;;;;;;;;;;4966934;28;20061;-62
2023/10/15 02:58:56;;;;;;;1.13;0.40;;;;;;;;;;4986350;28;20049;-62
2023/10/15 03:01:25;;;;;;;1.15;0.38;;;;;;;;;;4977146;28;20058;-62
2023/10/15 03:03:53;;;;;;;2.58;0.40;;;;;;;;;;4990952;28;20061;-62
2023/10/15 03:06:24;;;;;;;0.77;0.32;;;;;;;;;;4976896;28;20050;-63
2023/10/15 03:08:52;;;;;;;1.17;0.30;;;;;;;;;;4969900;28;20073;-62
2023/10/15 03:11:20;;;;;;;1.75;0.50;;;;;;;;;;4995555;28;20052;-62
2023/10/15 03:13:52;;;;;;;0.63;0.30;;;;;;;;;;4973622;28;20077;-62
2023/10/15 03:16:19;;;;;;;0.50;0.25;;;;;;;;;;4995915;28;20057;-62
2023/10/15 03:18:49;;;;;;;4.15;0.68;;;;;;;;;;4988923;28;20061;-62
2023/10/15 03:21:20;;;;;;;1.23;0.40;;;;;;;;;;4977159;28;20121;-62
2023/10/15 03:23:49;;;;;;;2.80;0.50;;;;;;;;;;4952658;28;20129;-64
2023/10/15 03:26:18;;;;;;;2.92;0.38;;;;;;;;;;4994129;28;20081;-62
2023/10/15 03:28:50;;;;;;;5.47;0.50;;;;;;;;;;4968724;28;20058;-63
2023/10/15 03:31:17;;;;;;;0.73;0.30;;;;;;;;;;4976898;28;20057;-62
2023/10/15 03:34:03;;;;;;;3.40;0.40;;;;;;;;;;4990915;28;20075;-62
2023/10/15 03:36:43;;;;;;;0.75;0.30;;;;;;;;;;4997061;28;20057;-62
2023/10/15 03:39:15;;;;;;;1.15;0.40;;;;;;;;;;4995116;28;20053;-61
2023/10/15 03:41:42;;;;;;;1.25;0.35;;;;;;;;;;4998649;28;20049;-62
2023/10/15 03:44:10;;;;;;;2.05;0.35;;;;;;;;;;4992083;28;20111;-61
2023/10/15 03:46:37;;;;;;;1.17;0.50;;;;;;;;;;4993869;28;20065;-62
2023/10/15 03:49:08;;;;;;;0.57;0.40;;;;;;;;;;4997857;28;20128;-61
2023/10/15 03:51:40;;;;;;;2.03;0.52;;;;;;;;;;5019444;28;20057;-62
2023/10/15 03:54:08;;;;;;;1.23;0.40;;;;;;;;;;4971431;28;20135;-62
2023/10/15 03:56:35;;;;;;;0.83;0.40;;;;;;;;;;5012487;28;20061;-62
2023/10/15 03:59:03;;;;;;;0.65;0.40;;;;;;;;;;5013460;28;20299;-62
2023/10/15 04:01:31;;;;;;;0.47;0.20;;;;;;;;;;5001721;28;20156;-62
2023/10/15 04:04:01;;;;;;;2.05;0.40;;;;;;;;;;4973211;28;20051;-62
2023/10/15 04:06:27;;;;;;;2.00;0.30;;;;;;;;;;5004293;28;20065;-62
2023/10/15 04:09:09;;;;;;;0.38;0.32;;;;;;;;;;4985533;28;20076;-62
2023/10/15 04:11:42;;;;;;;1.65;0.40;;;;;;;;;;5006527;28;20062;-62
2023/10/15 04:14:13;;;;;;;2.53;0.70;;;;;;;;;;4987147;28;20138;-62
2023/10/15 04:16:41;;;;;;;1.60;0.47;;;;;;;;;;5016012;28;20111;-62
2023/10/15 04:19:08;;;;;;;1.98;0.30;;;;;;;;;;4996148;28;20148;-62
2023/10/15 04:21:38;;;;;;;0.95;0.30;;;;;;;;;;5019028;28;20108;-62
2023/10/15 04:24:07;;;;;;;4.47;0.40;;;;;;;;;;4996152;28;20137;-63
2023/10/15 04:26:40;;;;;;;1.50;0.55;;;;;;;;;;4999897;28;20072;-63
2023/10/15 04:29:16;;;;;;;0.25;0.22;;;;;;;;;;4999275;28;20067;-62
2023/10/15 04:31:46;;;;;;;2.45;0.50;;;;;;;;;;5001538;28;20061;-62
2023/10/15 04:34:18;;;;;;;0.88;0.40;;;;;;;;;;5013830;28;20072;-62
2023/10/15 04:36:45;;;;;;;1.45;0.50;;;;;;;;;;4994662;28;20210;-63
2023/10/15 04:39:15;;;;;;;0.95;0.32;;;;;;;;;;5000891;28;20045;-62
2023/10/15 04:41:42;;;;;;;1.15;0.45;;;;;;;;;;5019254;28;20057;-62
2023/10/15 04:44:13;;;;;;;1.67;0.40;;;;;;;;;;4997543;28;20101;-62
2023/10/15 04:46:43;;;;;;;1.75;0.45;;;;;;;;;;5016787;28;20057;-62
2023/10/15 04:49:11;;;;;;;1.77;0.40;;;;;;;;;;4999604;28;20064;-62
2023/10/15 04:51:43;;;;;;;0.30;0.28;;;;;;;;;;5000300;28;20046;-62
2023/10/15 04:54:10;;;;;;;0.65;0.28;;;;;;;;;;4987334;28;20042;-62
2023/10/15 04:56:42;;;;;;;0.43;0.25;;;;;;;;;;5000757;28;20050;-63
2023/10/15 04:59:09;;;;;;;2.30;0.47;;;;;;;;;;5000755;28;20160;-62
2023/10/15 05:01:36;;;;;;;0.43;0.32;;;;;;;;;;5000250;28;20152;-62
2023/10/15 05:04:03;;;;;;;0.63;0.30;;;;;;;;;;4995110;28;20069;-62
2023/10/15 05:06:30;;;;;;;1.20;0.40;;;;;;;;;;5001269;28;20058;-62
2023/10/15 05:08:57;;;;;;;0.63;0.32;;;;;;;;;;4993279;28;20293;-64
2023/10/15 05:11:24;;;;;;;2.58;0.30;;;;;;;;;;5000175;28;20049;-62
2023/10/15 05:13:52;;;;;;;0.30;0.28;;;;;;;;;;5000770;28;20107;-62
2023/10/15 05:16:20;;;;;;;3.28;0.28;;;;;;;;;;5018880;28;20053;-61
2023/10/15 05:18:48;;;;;;;1.77;0.50;;;;;;;;;;4993845;28;20053;-63
2023/10/15 05:21:14;;;;;;;1.05;0.38;;;;;;;;;;5020098;28;20156;-62
2023/10/15 05:23:41;;;;;;;1.67;0.38;;;;;;;;;;4998191;28;20148;-62
2023/10/15 05:26:08;;;;;;;0.60;0.32;;;;;;;;;;4996851;28;20148;-62
2023/10/15 05:28:35;;;;;;;0.50;0.30;;;;;;;;;;4998224;28;20057;-63
2023/10/15 05:31:03;;;;;;;2.10;0.50;;;;;;;;;;4997226;28;20061;-62
2023/10/15 05:33:30;;;;;;;1.40;0.45;;;;;;;;;;5016846;28;20073;-62
2023/10/15 05:35:57;;;;;;;0.47;0.30;;;;;;;;;;5012933;28;20144;-63
2023/10/15 05:38:26;;;;;;;0.95;0.40;;;;;;;;;;5001987;28;20048;-62
2023/10/15 05:40:58;;;;;;;0.25;0.25;;;;;;;;;;5020315;28;20100;-62
2023/10/15 05:43:25;;;;;;;0.45;0.30;;;;;;;;;;5006486;28;20077;-62
2023/10/15 05:45:51;;;;;;;1.50;0.43;;;;;;;;;;5013705;28;20058;-62
2023/10/15 05:48:19;;;;;;;0.40;0.40;;;;;;;;;;5001884;28;20067;-62
2023/10/15 05:50:50;;;;;;;2.22;0.40;;;;;;;;;;4991915;28;20088;-62
2023/10/15 05:53:17;;;;;;;4.07;0.60;;;;;;;;;;5018169;28;20061;-62
2023/10/15 05:55:44;;;;;;;1.83;0.80;;;;;;;;;;5012789;28;20072;-62
2023/10/15 05:58:11;;;;;;;2.78;0.80;;;;;;;;;;4999525;28;20057;-62
2023/10/15 06:00:39;;;;;;;1.65;0.90;;;;;;;;;;4995341;28;20061;-62
2023/10/15 06:03:07;;;;;;;4.25;1.52;;;;;;;;;;5016408;28;20081;-62
2023/10/15 06:05:35;;;;;;;7.35;1.20;;;;;;;;;;4991121;28;20125;-63
2023/10/15 06:08:04;;;;;;;1.48;0.47;;;;;;;;;;5015901;28;20058;-62
2023/10/15 06:10:32;;;;;;;1.10;0.60;;;;;;;;;;5000677;28;20137;-61
2023/10/15 06:13:00;;;;;;;0.82;0.52;;;;;;;;;;4990896;28;21221;-62
2023/10/15 06:15:28;;;;;;;1.45;0.50;;;;;;;;;;4985147;28;20140;-64
2023/10/15 06:17:55;;;;;;;1.83;0.85;;;;;;;;;;4997286;28;20053;-62
2023/10/15 06:20:22;;;;;;;0.20;0.20;;;;;;;;;;5015092;28;20057;-61
2023/10/15 06:22:55;;;;;;;0.77;0.43;;;;;;;;;;4989637;28;20119;-63
2023/10/15 06:25:23;;;;;;;3.33;0.60;;;;;;;;;;4970378;28;20053;-62
2023/10/15 06:27:51;;;;;;;0.93;0.40;;;;;;;;;;4998037;28;20049;-62
2023/10/15 06:30:19;;;;;;;1.15;0.50;;;;;;;;;;4996514;28;20057;-62
2023/10/15 06:32:52;;;;;;;2.67;0.70;;;;;;;;;;5012294;28;20297;-62
2023/10/15 06:35:20;;;;;;;1.27;0.38;;;;;;;;;;5008937;28;20100;-62
2023/10/15 06:37:47;;;;;;;0.82;0.32;;;;;;;;;;5018220;28;20061;-62
2023/10/15 06:40:15;;;;;;;1.67;0.40;;;;;;;;;;5016156;28;20068;-62
2023/10/15 06:42:43;;;;;;;3.25;0.82;;;;;;;;;;4991472;28;20053;-63
2023/10/15 06:45:11;;;;;;;8.48;2.90;;;;;;;;;;4989468;28;20057;-62
2023/10/15 06:47:38;;;;;;;1.05;0.60;;;;;;;;;;5014853;28;20057;-62
2023/10/15 06:50:07;;;;;;;2.08;0.50;;;;;;;;;;5014242;28;20126;-62
2023/10/15 06:52:39;;;;;;;1.42;0.45;;;;;;;;;;5018156;28;20049;-65
2023/10/15 06:55:07;;;;;;;0.88;0.45;;;;;;;;;;4990903;28;20063;-62
2023/10/15 06:57:38;;;;;;;5.85;0.60;;;;;;;;;;4997477;28;20052;-62
2023/10/15 07:00:06;;;;;;;2.13;0.47;;;;;;;;;;4996123;28;20136;-63
2023/10/15 07:02:33;;;;;;;2.63;0.57;;;;;;;;;;4999975;28;20127;-60
2023/10/15 07:05:01;;;;;;;1.95;0.40;;;;;;;;;;4984699;28;20077;-62
2023/10/15 07:07:28;;;;;;;2.65;0.50;;;;;;;;;;4998445;28;20053;-62
2023/10/15 07:09:55;;;;;;;1.38;0.60;;;;;;;;;;4996806;28;20341;-62
2023/10/15 07:12:22;;;;;;;0.60;0.40;;;;;;;;;;4997353;28;20049;-62
2023/10/15 07:14:51;;;;;;;0.93;0.73;;;;;;;;;;4937829;28;20053;-61
2023/10/15 07:17:17;;;;;;;1.13;0.63;;;;;;;;;;4989582;28;20071;-64
2023/10/15 07:19:44;;;;;;;3.83;0.80;;;;;;;;;;5015665;28;20096;-64
2023/10/15 07:22:11;;;;;;;1.42;0.60;;;;;;;;;;4997095;28;20060;-64
2023/10/15 07:24:38;;;;;;;2.25;0.75;;;;;;;;;;4949501;28;20121;-63
2023/10/15 07:27:05;;;;;;;0.95;0.60;;;;;;;;;;4998860;28;20168;-62
2023/10/15 07:29:32;;;;;;;5.05;0.52;;;;;;;;;;5002037;28;20087;-64
2023/10/15 07:32:00;;;;;;;3.50;0.70;;;;;;;;;;5018841;28;20115;-62
2023/10/15 07:34:27;;;;;;;3.88;0.80;;;;;;;;;;4954221;28;20057;-62
2023/10/15 07:36:55;;;;;;;6.32;0.70;;;;;;;;;;4994331;28;20117;-63
2023/10/15 07:39:23;;;;;;;2.15;0.73;;;;;;;;;;4998317;28;20103;-62
2023/10/15 07:41:50;;;;;;;3.13;0.50;;;;;;;;;;5001687;28;20057;-62
2023/10/15 07:44:16;;;;;;;15.70;4.55;;;;;;;;;;5005415;28;20065;-63
2023/10/15 07:46:43;;;;;;;5.03;1.42;;;;;;;;;;4995247;28;20053;-64
2023/10/15 07:49:14;;;;;;;2.70;0.73;;;;;;;;;;5016734;28;20064;-63
2023/10/15 07:51:40;;;;;;;1.00;0.40;;;;;;;;;;5016741;28;20050;-63
2023/10/15 07:54:08;;;;;;;0.43;0.40;;;;;;;;;;4977850;28;20144;-63
2023/10/15 07:56:37;;;;;;;5.50;0.57;;;;;;;;;;4985246;28;20050;-64
2023/10/15 07:59:07;;;;;;;1.65;0.40;;;;;;;;;;4993842;28;20054;-62
2023/10/15 08:01:36;;;;;;;3.78;0.50;;;;;;;;;;4999760;28;20061;-62
2023/10/15 08:04:05;;;;;;;1.17;0.55;;;;;;;;;;4994829;28;20058;-63
2023/10/15 08:06:34;;;;;;;3.05;0.70;;;;;;;;;;4999153;28;20053;-63
2023/10/15 08:09:01;;;;;;;2.17;0.45;;;;;;;;;;4994560;28;20918;-62
2023/10/15 08:11:28;;;;;;;5.68;0.63;;;;;;;;;;4999893;28;20052;-62
2023/10/15 08:13:54;;;;;;;3.90;0.98;;;;;;;;;;5031206;28;20053;-62
2023/10/15 08:16:22;;;;;;;1.35;0.50;;;;;;;;;;4996023;28;20147;-61
2023/10/15 08:18:49;;;;;;;1.55;0.50;;;;;;;;;;5010746;28;20069;-62
2023/10/15 08:21:15;;;;;;;1.55;0.40;;;;;;;;;;4999448;28;20137;-62
2023/10/15 08:23:44;;;;;;;2.13;0.47;;;;;;;;;;4998853;28;20045;-62
2023/10/15 08:26:11;;;;;;;2.45;0.55;;;;;;;;;;4987331;28;20096;-62
2023/10/15 08:28:38;;;;;;;2.00;0.80;;;;;;;;;;5014938;28;20053;-62
2023/10/15 08:31:08;;;;;;;1.88;0.38;;;;;;;;;;5000125;28;20138;-62
2023/10/15 08:33:37;;;;;;;0.88;0.50;;;;;;;;;;4997956;28;20131;-62
2023/10/15 08:36:05;;;;;;;1.02;0.47;;;;;;;;;;4985776;28;20080;-62
2023/10/15 08:38:32;;;;;;;0.73;0.40;;;;;;;;;;4997524;28;20115;-63
2023/10/15 08:41:06;;;;;;;3.40;0.55;;;;;;;;;;4993953;28;20050;-62
2023/10/15 08:43:33;;;;;;;11.88;4.05;;;;;;;;;;5016601;28;20057;-62
2023/10/15 08:46:00;;;;;;;3.50;1.08;;;;;;;;;;4977613;28;20068;-61
2023/10/15 08:48:35;;;;;;;1.63;0.43;;;;;;;;;;5016077;28;20049;-62
2023/10/15 08:51:03;;;;;;;1.98;0.40;;;;;;;;;;4991343;28;20057;-62
2023/10/15 08:53:32;;;;;;;0.52;0.45;;;;;;;;;;4997493;28;20132;-62
2023/10/15 08:56:01;;;;;;;1.13;0.43;;;;;;;;;;4951273;28;20272;-62
2023/10/15 08:58:30;;;;;;;0.28;0.25;;;;;;;;;;4999570;28;20138;-62
2023/10/15 09:00:59;;;;;;;1.85;0.47;;;;;;;;;;4989889;28;20056;-62
2023/10/15 09:03:27;;;;;;;2.08;0.95;;;;;;;;;;5017229;28;20140;-62
2023/10/15 09:05:54;;;;;;;1.63;0.45;;;;;;;;;;5000118;28;20057;-62
2023/10/15 09:08:22;;;;;;;1.50;0.38;;;;;;;;;;5016502;28;20235;-62
2023/10/15 09:10:52;;;;;;;1.38;0.70;;;;;;;;;;5007398;28;20061;-62
2023/10/15 09:13:21;;;;;;;0.82;0.43;;;;;;;;;;5017235;28;20060;-62
2023/10/15 09:15:52;;;;;;;2.00;0.50;;;;;;;;;;5012105;28;20159;-62
2023/10/15 09:18:21;;;;;;;0.35;0.30;;;;;;;;;;4999630;28;20077;-62
2023/10/15 09:20:51;;;;;;;3.25;0.55;;;;;;;;;;4990358;28;20049;-62
2023/10/15 09:23:22;;;;;;;2.95;0.68;;;;;;;;;;5017433;28;20063;-62
2023/10/15 09:25:53;;;;;;;1.42;0.60;;;;;;;;;;4957720;28;20147;-64
2023/10/15 09:28:20;;;;;;;0.63;0.38;;;;;;;;;;4996912;28;20064;-64
2023/10/15 09:30:47;;;;;;;2.13;0.50;;;;;;;;;;5033694;28;20045;-62
2023/10/15 09:33:17;;;;;;;3.42;0.63;;;;;;;;;;5037353;28;20135;-62
2023/10/15 09:35:44;;;;;;;2.40;0.57;;;;;;;;;;4986817;28;20235;-62
2023/10/15 09:38:14;;;;;;;3.28;0.70;;;;;;;;;;5014203;28;20061;-64
2023/10/15 09:40:43;;;;;;;1.73;0.45;;;;;;;;;;5015078;28;20077;-62
2023/10/15 09:43:12;;;;;;;1.58;0.40;;;;;;;;;;5027095;28;20061;-61
2023/10/15 09:45:41;;;;;;;1.02;0.40;;;;;;;;;;4949120;28;20056;-62
2023/10/15 09:48:11;;;;;;;1.15;0.43;;;;;;;;;;4996105;28;20054;-63
2023/10/15 09:50:42;;;;;;;1.20;0.40;;;;;;;;;;5002855;28;20057;-62
2023/10/15 09:53:12;;;;;;;2.90;0.50;;;;;;;;;;4994093;28;20064;-62
2023/10/15 09:55:40;;;;;;;2.10;0.40;;;;;;;;;;4998535;28;20081;-62
2023/10/15 09:58:09;;;;;;;2.65;0.70;;;;;;;;;;4999894;28;20117;-63
2023/10/15 10:00:59;;;;;;;2.63;0.60;;;;;;;;;;5014415;28;20073;-63
2023/10/15 10:03:40;;;;;;;0.98;0.47;;;;;;;;;;5000004;28;20141;-63
2023/10/15 10:06:22;;;;;;;0.60;0.30;;;;;;;;;;4978655;28;20057;-64
2023/10/15 10:09:10;;;;;;;1.48;0.40;;;;;;;;;;5013969;28;20041;-63
2023/10/15 10:11:56;;;;;;;1.05;0.47;;;;;;;;;;5016726;28;20197;-63
2023/10/15 10:14:45;;;;;;;0.20;0.20;;;;;;;;;;4986397;28;20216;-63
2023/10/15 10:17:15;;;;;;;0.25;0.25;;;;;;;;;;4999169;28;20053;-63
2023/10/15 10:19:43;;;;;;;1.55;0.40;;;;;;;;;;5015322;28;20055;-62
2023/10/15 10:22:23;;;;;;;2.38;0.30;;;;;;;;;;5016977;28;20054;-63
2023/10/15 10:24:58;;;;;;;4.55;0.60;;;;;;;;;;4976341;28;20048;-62
2023/10/15 10:27:26;;;;;;;4.45;1.17;;;;;;;;;;5015109;28;20064;-62
2023/10/15 10:29:54;;;;;;;8.90;3.10;;;;;;;;;;5015043;28;20053;-62
2023/10/15 10:32:22;;;;;;;7.55;1.70;;;;;;;;;;5014609;28;20042;-62
2023/10/15 10:35:14;;;;;;;2.95;1.33;;;;;;;;;;4971824;28;20077;-63
2023/10/15 10:38:05;;;;;;;9.98;3.90;;;;;;;;;;5014984;28;20057;-62
2023/10/15 10:40:54;;;;;;;3.65;1.00;;;;;;;;;;5009565;28;20145;-62
2023/10/15 10:43:24;;;;;;;9.27;0.75;;;;;;;;;;5003772;28;20049;-62
2023/10/15 10:45:58;;;;;;;1.17;0.63;;;;;;;;;;5009113;28;20181;-62
2023/10/15 10:48:30;;;;;;;2.92;0.60;;;;;;;;;;4996741;28;20053;-61
2023/10/15 10:51:22;;;;;;;1.50;0.57;;;;;;;;;;5008227;28;20049;-62
2023/10/15 10:54:22;;;;;;;4.03;0.50;;;;;;;;;;4988252;28;20057;-61
2023/10/15 10:57:08;;;;;;;1.42;0.55;;;;;;;;;;5003598;28;20057;-61
2023/10/15 10:59:38;;;;;;;2.03;0.82;;;;;;;;;;5020807;28;20033;-62
2023/10/15 11:02:06;;;;;;;4.97;1.27;;;;;;;;;;4998864;28;20053;-62
2023/10/15 11:04:34;;;;;;;4.53;1.27;;;;;;;;;;4986785;28;20053;-62
2023/10/15 11:07:03;;;;;;;4.68;1.27;;;;;;;;;;4988570;28;20088;-61
2023/10/15 11:09:37;;;;;;;3.95;0.63;;;;;;;;;;5014984;28;20073;-62
2023/10/15 11:12:14;;;;;;;2.13;0.70;;;;;;;;;;4998367;28;20136;-63
2023/10/15 11:14:41;;;;;;;2.55;0.80;;;;;;;;;;5000645;28;20069;-64
2023/10/15 11:17:09;;;;;;;1.92;0.40;;;;;;;;;;5011998;28;20061;-63
2023/10/15 11:19:37;;;;;;;4.00;0.60;;;;;;;;;;4998838;28;20064;-63
2023/10/15 11:22:07;;;;;;;3.72;0.52;;;;;;;;;;5001027;28;20053;-65
2023/10/15 11:24:39;;;;;;;1.65;0.43;;;;;;;;;;4954443;28;20057;-64
2023/10/15 11:27:10;;;;;;;2.38;0.50;;;;;;;;;;5008064;28;20150;-63
2023/10/15 11:29:45;;;;;;;3.35;0.65;;;;;;;;;;4997645;28;20176;-64
2023/10/15 11:32:21;;;;;;;1.42;0.43;;;;;;;;;;4997792;28;20099;-63
2023/10/15 11:34:55;;;;;;;2.95;0.70;;;;;;;;;;4981788;28;20057;-65
2023/10/15 11:37:26;;;;;;;3.05;0.70;;;;;;;;;;4995266;28;20067;-63
2023/10/15 11:39:55;;;;;;;;;;;;;;;;;;4989029;28;20045;-64
2023/10/15 11:42:24;;;;;;;5.47;0.93;;;;;;;;;;5016124;28;19925;-64
2023/10/15 11:45:16;;;;;;;1.80;0.70;;;;;;;;;;4965943;28;20059;-64
2023/10/15 11:47:44;;;;;;;1.13;0.60;;;;;;;;;;5016565;28;20137;-63
2023/10/15 11:50:19;;;;;;;3.40;1.05;;;;;;;;;;4992662;28;20077;-64
2023/10/15 11:52:52;;;;;;;9.65;2.35;;;;;;;;;;4987003;28;20050;-64
2023/10/15 11:55:21;;;;;;;4.43;0.82;;;;;;;;;;4992386;28;20050;-65
2023/10/15 11:57:51;;;;;;;1.58;0.52;;;;;;;;;;5003309;28;20060;-64
2023/10/15 12:00:31;;;;;;;3.38;0.63;;;;;;;;;;4999210;28;20080;-64
2023/10/15 12:03:00;;;;;;;2.45;0.60;;;;;;;;;;5014467;28;20057;-63
2023/10/15 12:05:31;;;;;;;1.70;0.50;;;;;;;;;;4978904;28;20053;-64
2023/10/15 12:08:07;;;;;;;1.63;0.60;;;;;;;;;;4999668;28;20255;-65
2023/10/15 12:10:42;;;;;;;3.15;0.50;;;;;;;;;;5002817;28;20077;-63
2023/10/15 12:13:14;;;;;;;1.90;0.60;;;;;;;;;;5004488;28;20454;-64
2023/10/15 12:15:47;;;;;;;2.85;0.50;;;;;;;;;;4970787;28;20878;-65
2023/10/15 12:18:16;;;;;;;2.47;0.82;;;;;;;;;;4995155;28;20056;-64
2023/10/15 12:20:43;;;;;;;;;;;;;;;;;;5003781;28;20055;-64
2023/10/15 12:23:10;;;;;;;1.35;0.50;;;;;;;;;;5019891;28;19925;-64
2023/10/15 12:25:38;;;;;;;7.75;0.93;;;;;;;;;;4973737;28;20053;-63
2023/10/15 12:28:05;;;;;;;2.15;0.50;;;;;;;;;;5021827;28;20053;-64
2023/10/15 12:30:42;;;;;;;5.63;0.82;;;;;;;;;;5007964;28;20045;-63
2023/10/15 12:36:33;;;;;;;0.55;0.40;;;;;;;;;;4983080;28;20049;-63
2023/10/15 12:39:06;;;;;;;2.25;0.50;;;;;;;;;;5003106;28;20061;-63
2023/10/15 12:41:38;;;;;;;3.67;1.23;;;;;;;;;;5017381;28;20081;-64
2023/10/15 12:44:17;;;;;;;1.27;0.52;;;;;;;;;;5001595;28;20052;-63
2023/10/15 12:46:47;;;;;;;4.05;0.60;;;;;;;;;;4989488;28;20049;-64
2023/10/15 12:49:18;;;;;;;8.68;0.90;;;;;;;;;;4999958;28;20056;-64
2023/10/15 12:51:47;;;;;;;5.93;0.52;;;;;;;;;;5019409;28;20884;-63
2023/10/15 12:54:19;;;;;;;9.48;0.73;;;;;;;;;;5001292;28;20131;-64
2023/10/15 12:57:03;;;;;;;;;;;;;;;;;;;;;
2023/10/15 12:59:38;;;;;;;3.17;0.80;;;;;;;;;;5000563;28;20190;-65
2023/10/15 13:02:14;;;;;;;3.05;0.73;;;;;;;;;;5022775;28;20057;-64
2023/10/15 13:04:48;;;;;;;2.90;0.63;;;;;;;;;;5019425;28;20071;-65
2023/10/15 13:07:28;;;;;;;3.95;0.73;;;;;;;;;;4955946;28;20058;-62
2023/10/15 13:10:00;;;;;;;6.82;2.17;;;;;;;;;;4977937;28;20150;-65
2023/10/15 13:12:35;;;;;;;1.83;0.50;;;;;;;;;;4988518;28;20053;-63
2023/10/15 13:15:28;;;;;;;3.38;0.45;;;;;;;;;;4961368;28;20174;-63
2023/10/15 13:17:55;;;;;;;2.88;0.40;;;;;;;;;;4983913;28;20054;-64
2023/10/15 13:20:25;;;;;;;6.88;0.70;;;;;;;;;;5003176;28;20049;-64
2023/10/15 13:23:19;;;;;;;;;;;;;;;;;;;;;
2023/10/15 13:26:01;;;;;;;3.60;0.70;;;;;;;;;;4935623;28;20047;-65
2023/10/15 13:28:30;;;;;;;1.50;0.52;;;;;;;;;;4997244;28;20053;-64
2023/10/15 13:31:02;;;;;;;2.45;0.68;;;;;;;;;;5003175;28;20049;-64
2023/10/15 13:33:54;;;;;;;1.65;0.55;;;;;;;;;;4996957;28;20133;-64
2023/10/15 13:36:26;;;;;;;5.75;0.75;;;;;;;;;;4947126;28;20058;-64
2023/10/15 13:39:02;;;;;;;1.50;0.50;;;;;;;;;;5001267;28;20103;-64
2023/10/15 13:41:34;;;;;;;3.15;0.52;;;;;;;;;;5013727;28;20339;-64
2023/10/15 13:44:01;;;;;;;7.63;2.28;;;;;;;;;;5016872;28;20059;-66
2023/10/15 13:46:28;;;;;;;3.72;1.42;;;;;;;;;;4960857;28;20058;-63
2023/10/15 13:49:00;;;;;;;1.77;0.65;;;;;;;;;;4998961;28;20050;-67
2023/10/15 13:51:30;;;;;;;2.63;0.77;;;;;;;;;;4978150;28;20065;-64
2023/10/15 13:53:58;;;;;;;3.05;0.75;;;;;;;;;;5019260;28;20064;-64
2023/10/15 13:56:28;;;;;;;2.50;0.50;;;;;;;;;;4945900;28;20060;-65
2023/10/15 13:58:55;;;;;;;3.25;0.70;;;;;;;;;;5014167;28;20057;-64
2023/10/15 14:01:23;;;;;;;3.72;1.00;;;;;;;;;;4992546;28;20053;-65
2023/10/15 14:03:51;;;;;;;1.02;0.80;;;;;;;;;;4999760;28;20057;-65
2023/10/15 14:06:19;;;;;;;3.20;0.68;;;;;;;;;;4957064;28;20053;-63
2023/10/15 14:08:46;;;;;;;4.97;0.60;;;;;;;;;;4991373;28;20152;-62
2023/10/15 14:11:17;;;;;;;2.47;0.60;;;;;;;;;;4997561;28;20064;-63
2023/10/15 14:13:46;;;;;;;4.30;0.65;;;;;;;;;;5000337;28;20053;-65
2023/10/15 14:16:20;;;;;;;4.70;0.98;;;;;;;;;;4972545;28;20057;-62
2023/10/15 14:18:55;;;;;;;2.97;0.60;;;;;;;;;;5019259;28;20072;-62
2023/10/15 14:21:25;;;;;;;2.53;0.60;;;;;;;;;;5010437;28;20132;-63
2023/10/15 14:23:58;;;;;;;5.07;0.65;;;;;;;;;;5022486;28;20146;-62
2023/10/15 14:26:27;;;;;;;2.97;0.60;;;;;;;;;;4963620;28;20069;-62
2023/10/15 14:28:57;;;;;;;2.20;0.60;;;;;;;;;;5000829;28;20046;-62
2023/10/15 14:32:00;;;;;;;3.72;0.80;;;;;;;;;;4995625;28;20072;-63
2023/10/15 14:34:33;;;;;;;2.40;0.52;;;;;;;;;;4981006;28;20136;-64
2023/10/15 14:37:04;;;;;;;1.48;0.40;;;;;;;;;;4966594;28;20078;-63
2023/10/15 14:39:41;;;;;;;3.72;0.60;;;;;;;;;;4959119;28;20278;-63
2023/10/15 14:42:10;;;;;;;0.50;0.28;;;;;;;;;;5015780;28;20115;-63
2023/10/15 14:44:45;;;;;;;4.78;0.77;;;;;;;;;;5001300;28;20089;-63
2023/10/15 14:49:54;;;;;;;0.57;0.50;;;;;;;;;;4975990;28;20046;-62
2023/10/15 14:52:21;;;;;;;0.45;0.45;;;;;;;;;;4981224;28;20064;-63
2023/10/15 14:54:48;;;;;;;4.53;1.30;;;;;;;;;;4989941;28;20091;-63
2023/10/15 14:57:18;;;;;;;3.17;0.95;;;;;;;;;;4982903;28;20068;-62
2023/10/15 14:59:47;;;;;;;5.13;1.00;;;;;;;;;;4998670;28;20129;-63
2023/10/15 15:02:17;;;;;;;8.20;1.63;;;;;;;;;;4980083;28;20064;-62
2023/10/15 15:04:44;;;;;;;3.63;0.80;;;;;;;;;;4979372;28;20061;-62
2023/10/15 15:07:21;;;;;;;1.45;0.40;;;;;;;;;;4965189;28;20081;-61
2023/10/15 15:09:52;;;;;;;1.58;0.50;;;;;;;;;;4981693;28;20057;-63
2023/10/15 15:12:27;;;;;;;2.88;0.70;;;;;;;;;;4980933;28;20062;-63
2023/10/15 15:14:54;;;;;;;1.08;0.30;;;;;;;;;;4979290;28;20116;-63
2023/10/15 15:17:26;;;;;;;5.40;0.77;;;;;;;;;;4958622;28;20148;-63